Creek Data

    Home     View Charts     View Raw Data     Messages

ID Distance Battery Voltage Battery Current Internal Temp Internal Humidity External Temp Solar Input rssi snr Time Stamp Record
67127 12.4 3.80 -5 58 52 59 0 -72 8 02/23/2026 07:30 PM 49960
67126 12.4 3.80 -5 59 53 59 0 -72 8 02/23/2026 07:15 PM 49959
67125 12.4 3.68 -5 59 53 58 0.1 -72 8 02/23/2026 07:00 PM 49958
67124 12.4 3.68 -5 59 53 59 0 -72 8 02/23/2026 06:45 PM 49957
67123 12.4 3.67 -5 60 53 60 0 -71 8 02/23/2026 06:30 PM 49956
67122 12.4 3.67 -5 60 54 60 0 -72 8 02/23/2026 06:15 PM 49955
67121 12.3 3.70 -5 61 54 60 0.7 -71 8 02/23/2026 06:00 PM 49954
67120 12.3 3.81 -6 62 54 61 1.5 -72 8 02/23/2026 05:45 PM 49953
67119 12.3 3.82 -5 63 55 61 4.2 -72 8 02/23/2026 05:30 PM 49952
67118 12.3 3.62 0 64 55 62 4.5 -72 8 02/23/2026 05:15 PM 49951
67117 12.4 3.89 8 65 54 63 4.6 -72 7 02/23/2026 05:00 PM 49950
67116 12.4 3.98 0 66 55 65 4.5 -71 8 02/23/2026 04:45 PM 49949
67115 12.3 3.88 10 67 55 65 4.5 -72 7 02/23/2026 04:30 PM 49948
67114 12.3 3.83 23 68 56 66 4.6 -72 7 02/23/2026 04:15 PM 49947
67113 12.4 3.87 23 69 56 66 4.5 -71 8 02/23/2026 04:00 PM 49946
67112 12.4 3.77 0 71 56 68 5.1 -72 8 02/23/2026 03:45 PM 49945
67111 12.4 4.06 0 73 56 68 5.1 -71 7 02/23/2026 03:30 PM 49944
67110 12.4 3.77 0 76 55 69 5.1 -71 7 02/23/2026 03:15 PM 49943
67109 12.4 3.77 0 80 52 71 5.1 -71 7 02/23/2026 03:00 PM 49942
67108 12.5 3.87 0 85 48 71 5.1 -71 6 02/23/2026 02:45 PM 49941
67107 12.5 3.78 0 86 46 73 5.1 -71 7 02/23/2026 02:30 PM 49940
67106 12.5 3.77 0 84 47 71 5.1 -71 7 02/23/2026 02:15 PM 49939
67105 12.5 3.77 0 85 45 68 5.1 -72 7 02/23/2026 02:00 PM 49938
67104 12.5 4.07 0 86 43 71 5.1 -72 8 02/23/2026 01:45 PM 49937
67103 12.5 3.99 0 83 44 69 5.1 -72 8 02/23/2026 01:30 PM 49936